sensor_id;sensor_type;location;lat;lon;timestamp;pressure;altitude;pressure_sealevel;temperature;humidity
44144;BME280;43510;51.920;4.492;2022-11-13T00:02:16;67235.56;;;12.42;100.00
44144;BME280;43510;51.920;4.492;2022-11-13T00:04:42;67234.63;;;12.44;100.00
44144;BME280;43510;51.920;4.492;2022-11-13T00:07:09;67213.38;;;12.24;100.00
44144;BME280;43510;51.920;4.492;2022-11-13T00:09:34;67212.81;;;12.24;100.00
44144;BME280;43510;51.920;4.492;2022-11-13T00:12:00;67216.19;;;12.27;100.00
44144;BME280;43510;51.920;4.492;2022-11-13T00:14:25;67223.97;;;12.34;100.00
44144;BME280;43510;51.920;4.492;2022-11-13T00:16:52;67210.03;;;12.21;100.00
44144;BME280;43510;51.920;4.492;2022-11-13T00:19:18;67219.19;;;12.25;100.00
44144;BME280;43510;51.920;4.492;2022-11-13T00:21:43;67211.13;;;12.22;100.00
44144;BME280;43510;51.920;4.492;2022-11-13T00:24:09;67213.22;;;12.22;100.00
44144;BME280;43510;51.920;4.492;2022-11-13T00:26:34;67206.13;;;12.18;100.00
44144;BME280;43510;51.920;4.492;2022-11-13T00:29:02;67204.84;;;12.14;100.00
44144;BME280;43510;51.920;4.492;2022-11-13T00:31:28;67194.41;;;12.07;100.00
44144;BME280;43510;51.920;4.492;2022-11-13T00:33:54;67205.56;;;12.17;100.00
44144;BME280;43510;51.920;4.492;2022-11-13T00:36:23;67197.16;;;12.10;100.00
44144;BME280;43510;51.920;4.492;2022-11-13T00:38:50;67195.34;;;12.06;100.00
44144;BME280;43510;51.920;4.492;2022-11-13T00:41:17;67205.00;;;12.17;100.00
44144;BME280;43510;51.920;4.492;2022-11-13T00:43:53;67212.25;;;12.23;100.00
44144;BME280;43510;51.920;4.492;2022-11-13T00:46:20;67206.13;;;12.18;100.00
44144;BME280;43510;51.920;4.492;2022-11-13T00:48:48;67185.69;;;11.95;100.00
44144;BME280;43510;51.920;4.492;2022-11-13T00:51:14;67202.59;;;12.12;100.00
44144;BME280;43510;51.920;4.492;2022-11-13T00:53:39;67194.94;;;12.08;100.00
44144;BME280;43510;51.920;4.492;2022-11-13T00:56:05;67196.06;;;12.09;100.00
44144;BME280;43510;51.920;4.492;2022-11-13T00:58:32;67199.09;;;12.07;100.00
44144;BME280;43510;51.920;4.492;2022-11-13T01:01:07;67194.94;;;12.08;100.00
44144;BME280;43510;51.920;4.492;2022-11-13T01:03:34;67191.03;;;12.04;100.00
44144;BME280;43510;51.920;4.492;2022-11-13T01:06:00;67193.50;;;12.02;100.00
44144;BME280;43510;51.920;4.492;2022-11-13T01:08:37;67183.06;;;11.95;100.00
44144;BME280;43510;51.920;4.492;2022-11-13T01:11:07;67176.69;;;11.94;100.00
44144;BME280;43510;51.920;4.492;2022-11-13T01:13:33;67169.66;;;11.82;100.00
44144;BME280;43510;51.920;4.492;2022-11-13T01:16:05;67176.19;;;11.86;100.00
44144;BME280;43510;51.920;4.492;2022-11-13T01:18:30;67205.41;;;12.15;100.00
44144;BME280;43510;51.920;4.492;2022-11-13T01:21:12;67183.78;;;11.98;100.00
44144;BME280;43510;51.920;4.492;2022-11-13T01:23:38;67169.09;;;11.82;100.00
44144;BME280;43510;51.920;4.492;2022-11-13T01:26:12;67178.97;;;11.89;100.00
44144;BME280;43510;51.920;4.492;2022-11-13T01:28:39;67162.00;;;11.78;100.00
44144;BME280;43510;51.920;4.492;2022-11-13T01:31:07;67161.84;;;11.75;100.00
44144;BME280;43510;51.920;4.492;2022-11-13T01:33:33;67170.38;;;11.85;100.00
44144;BME280;43510;51.920;4.492;2022-11-13T01:36:20;67177.09;;;11.92;100.00
44144;BME280;43510;51.920;4.492;2022-11-13T01:38:54;67173.16;;;11.88;100.00
44144;BME280;43510;51.920;4.492;2022-11-13T01:41:26;67165.91;;;11.81;100.00
44144;BME280;43510;51.920;4.492;2022-11-13T01:43:53;67159.22;;;11.75;100.00
44144;BME280;43510;51.920;4.492;2022-11-13T01:51:29;67163.34;;;11.74;100.00
44144;BME280;43510;51.920;4.492;2022-11-13T01:53:58;67157.34;;;11.71;100.00
44144;BME280;43510;51.920;4.492;2022-11-13T01:56:28;67143.56;;;11.61;100.00
44144;BME280;43510;51.920;4.492;2022-11-13T01:59:00;67137.81;;;11.54;100.00
44144;BME280;43510;51.920;4.492;2022-11-13T02:01:27;67149.53;;;11.64;100.00
44144;BME280;43510;51.920;4.492;2022-11-13T02:03:52;67141.72;;;11.57;100.00
44144;BME280;43510;51.920;4.492;2022-11-13T02:06:20;67142.44;;;11.60;100.00
44144;BME280;43510;51.920;4.492;2022-11-13T02:08:47;67143.38;;;11.59;100.00
44144;BME280;43510;51.920;4.492;2022-11-13T02:11:17;67145.06;;;11.60;100.00
44144;BME280;43510;51.920;4.492;2022-11-13T02:13:44;67139.31;;;11.53;100.00
44144;BME280;43510;51.920;4.492;2022-11-13T02:16:10;67140.44;;;11.54;100.00
44144;BME280;43510;51.920;4.492;2022-11-13T02:18:40;67131.44;;;11.53;100.00
44144;BME280;43510;51.920;4.492;2022-11-13T02:24:28;67137.06;;;11.51;100.00
44144;BME280;43510;51.920;4.492;2022-11-13T02:26:59;67127.75;;;11.44;100.00
44144;BME280;43510;51.920;4.492;2022-11-13T02:29:27;67159.03;;;11.73;100.00
44144;BME280;43510;51.920;4.492;2022-11-13T02:32:03;67135.19;;;11.54;100.00
44144;BME280;43510;51.920;4.492;2022-11-13T02:34:28;67127.19;;;11.44;100.00
44144;BME280;43510;51.920;4.492;2022-11-13T02:36:55;67128.50;;;11.48;100.00
44144;BME280;43510;51.920;4.492;2022-11-13T02:39:42;67135.56;;;11.52;100.00
44144;BME280;43510;51.920;4.492;2022-11-13T02:42:09;67120.66;;;11.40;100.00
44144;BME280;43510;51.920;4.492;2022-11-13T02:44:38;67122.72;;;11.40;100.00
44144;BME280;43510;51.920;4.492;2022-11-13T02:47:03;67121.41;;;11.43;100.00
44144;BME280;43510;51.920;4.492;2022-11-13T02:49:29;67120.09;;;11.40;100.00
44144;BME280;43510;51.920;4.492;2022-11-13T02:51:55;67121.22;;;11.41;100.00
44144;BME280;43510;51.920;4.492;2022-11-13T02:54:20;67122.16;;;11.39;100.00
44144;BME280;43510;51.920;4.492;2022-11-13T02:56:47;67116.94;;;11.39;100.00
44144;BME280;43510;51.920;4.492;2022-11-13T02:59:13;67106.72;;;11.28;100.00
44144;BME280;43510;51.920;4.492;2022-11-13T03:01:38;67118.66;;;11.34;100.00
44144;BME280;43510;51.920;4.492;2022-11-13T03:04:04;67120.91;;;11.36;100.00
44144;BME280;43510;51.920;4.492;2022-11-13T03:06:29;67104.88;;;11.24;100.00
44144;BME280;43510;51.920;4.492;2022-11-13T03:08:56;67112.28;;;11.33;100.00
44144;BME280;43510;51.920;4.492;2022-11-13T03:11:24;67119.22;;;11.34;100.00
44144;BME280;43510;51.920;4.492;2022-11-13T03:13:49;67110.06;;;11.31;100.00
44144;BME280;43510;51.920;4.492;2022-11-13T03:16:16;67103.94;;;11.25;100.00
44144;BME280;43510;51.920;4.492;2022-11-13T03:18:42;67104.88;;;11.24;100.00
44144;BME280;43510;51.920;4.492;2022-11-13T03:21:12;67099.31;;;11.19;100.00
44144;BME280;43510;51.920;4.492;2022-11-13T03:23:39;67084.97;;;11.08;100.00
44144;BME280;43510;51.920;4.492;2022-11-13T03:26:06;67086.28;;;11.04;100.00
44144;BME280;43510;51.920;4.492;2022-11-13T03:28:44;67092.19;;;11.15;100.00
44144;BME280;43510;51.920;4.492;2022-11-13T03:31:13;67101.75;;;11.16;100.00
44144;BME280;43510;51.920;4.492;2022-11-13T03:33:39;67098.00;;;11.15;100.00
44144;BME280;43510;51.920;4.492;2022-11-13T03:36:05;67078.81;;;11.02;100.00
44144;BME280;43510;51.920;4.492;2022-11-13T03:38:30;67095.56;;;11.18;100.00
44144;BME280;43510;51.920;4.492;2022-11-13T03:40:56;67088.13;;;11.09;100.00
44144;BME280;43510;51.920;4.492;2022-11-13T03:43:22;67088.31;;;11.11;100.00
44144;BME280;43510;51.920;4.492;2022-11-13T03:45:47;67086.06;;;11.09;100.00
44144;BME280;43510;51.920;4.492;2022-11-13T03:48:14;67076.59;;;11.00;100.00
44144;BME280;43510;51.920;4.492;2022-11-13T03:50:45;67086.63;;;11.10;100.00
44144;BME280;43510;51.920;4.492;2022-11-13T03:53:12;67091.47;;;11.12;100.00
44144;BME280;43510;51.920;4.492;2022-11-13T03:55:39;67087.75;;;11.11;100.00
44144;BME280;43510;51.920;4.492;2022-11-13T03:58:04;67079.94;;;11.03;100.00
44144;BME280;43510;51.920;4.492;2022-11-13T04:00:31;67079.94;;;11.03;100.00
44144;BME280;43510;51.920;4.492;2022-11-13T04:02:58;67071.56;;;10.96;100.00
44144;BME280;43510;51.920;4.492;2022-11-13T04:05:29;67078.09;;;10.99;100.00
44144;BME280;43510;51.920;4.492;2022-11-13T04:08:04;67063.75;;;10.89;100.00
44144;BME280;43510;51.920;4.492;2022-11-13T04:10:31;67054.25;;;10.80;100.00
44144;BME280;43510;51.920;4.492;2022-11-13T04:12:58;67054.50;;;10.76;100.00
44144;BME280;43510;51.920;4.492;2022-11-13T04:15:24;67064.53;;;10.85;100.00
44144;BME280;43510;51.920;4.492;2022-11-13T04:17:58;67069.72;;;10.92;100.00
44144;BME280;43510;51.920;4.492;2022-11-13T04:20:25;67047.97;;;10.72;100.00
44144;BME280;43510;51.920;4.492;2022-11-13T04:22:54;67059.84;;;10.85;100.00
44144;BME280;43510;51.920;4.492;2022-11-13T04:25:24;67058.00;;;10.81;100.00
44144;BME280;43510;51.920;4.492;2022-11-13T04:27:50;67048.13;;;10.75;100.00
44144;BME280;43510;51.920;4.492;2022-11-13T04:30:16;67033.63;;;10.61;100.00
44144;BME280;43510;51.920;4.492;2022-11-13T04:32:47;67049.81;;;10.76;100.00
44144;BME280;43510;51.920;4.492;2022-11-13T04:35:12;67050.94;;;10.77;100.00
44144;BME280;43510;51.920;4.492;2022-11-13T04:37:40;67038.47;;;10.63;100.00
44144;BME280;43510;51.920;4.492;2022-11-13T04:40:06;67045.72;;;10.70;100.00
44144;BME280;43510;51.920;4.492;2022-11-13T04:42:32;67059.69;;;10.83;100.00
44144;BME280;43510;51.920;4.492;2022-11-13T04:45:14;67062.06;;;10.87;100.00
44144;BME280;43510;51.920;4.492;2022-11-13T04:47:39;67062.06;;;10.87;100.00
44144;BME280;43510;51.920;4.492;2022-11-13T04:50:06;67060.41;;;10.86;100.00
44144;BME280;43510;51.920;4.492;2022-11-13T04:52:40;67058.75;;;10.84;100.00
44144;BME280;43510;51.920;4.492;2022-11-13T04:55:06;67061.34;;;10.84;100.00
44144;BME280;43510;51.920;4.492;2022-11-13T04:57:32;67062.31;;;10.83;100.00
44144;BME280;43510;51.920;4.492;2022-11-13T05:00:02;67042.00;;;10.69;100.00
44144;BME280;43510;51.920;4.492;2022-11-13T05:02:29;67051.31;;;10.75;100.00
44144;BME280;43510;51.920;4.492;2022-11-13T05:05:20;67055.59;;;10.77;100.00
44144;BME280;43510;51.920;4.492;2022-11-13T05:07:56;67041.81;;;10.67;99.55
44144;BME280;43510;51.920;4.492;2022-11-13T05:10:23;67037.19;;;10.60;99.82
44144;BME280;43510;51.920;4.492;2022-11-13T05:12:50;67033.63;;;10.61;99.58
44144;BME280;43510;51.920;4.492;2022-11-13T05:15:17;67035.84;;;10.63;99.52
44144;BME280;43510;51.920;4.492;2022-11-13T05:17:48;67029.72;;;10.58;99.30
44144;BME280;43510;51.920;4.492;2022-11-13T05:20:15;67033.06;;;10.61;98.94
44144;BME280;43510;51.920;4.492;2022-11-13T05:22:42;67039.41;;;10.62;98.94
44144;BME280;43510;51.920;4.492;2022-11-13T05:25:10;67037.34;;;10.62;98.56
44144;BME280;43510;51.920;4.492;2022-11-13T05:27:36;67024.53;;;10.51;98.80
44144;BME280;43510;51.920;4.492;2022-11-13T05:30:01;67020.22;;;10.49;98.72
44144;BME280;43510;51.920;4.492;2022-11-13T05:32:27;67024.72;;;10.53;98.74
44144;BME280;43510;51.920;4.492;2022-11-13T05:34:52;67029.53;;;10.55;98.18
44144;BME280;43510;51.920;4.492;2022-11-13T05:37:18;67024.91;;;10.49;97.98
44144;BME280;43510;51.920;4.492;2022-11-13T05:39:43;67017.84;;;10.45;98.23
44144;BME280;43510;51.920;4.492;2022-11-13T05:42:08;67011.16;;;10.39;97.89
44144;BME280;43510;51.920;4.492;2022-11-13T05:44:34;67024.91;;;10.49;98.01
44144;BME280;43510;51.920;4.492;2022-11-13T05:46:59;67018.56;;;10.48;98.03
44144;BME280;43510;51.920;4.492;2022-11-13T05:49:25;67013.75;;;10.39;97.99
44144;BME280;43510;51.920;4.492;2022-11-13T05:51:53;67017.69;;;10.42;98.07
44144;BME280;43510;51.920;4.492;2022-11-13T05:54:18;67012.09;;;10.37;97.67
44144;BME280;43510;51.920;4.492;2022-11-13T05:56:44;67010.03;;;10.38;97.46
44144;BME280;43510;51.920;4.492;2022-11-13T05:59:09;67009.31;;;10.35;97.84
44144;BME280;43510;51.920;4.492;2022-11-13T06:01:37;67004.44;;;10.33;97.96
44144;BME280;43510;51.920;4.492;2022-11-13T06:04:07;67002.94;;;10.34;97.91
44144;BME280;43510;51.920;4.492;2022-11-13T06:06:32;67000.00;;;10.29;97.48
44144;BME280;43510;51.920;4.492;2022-11-13T06:09:01;67007.63;;;10.33;98.23
44144;BME280;43510;51.920;4.492;2022-11-13T06:11:28;67007.06;;;10.33;98.11
44144;BME280;43510;51.920;4.492;2022-11-13T06:13:55;66995.88;;;10.30;97.98
44144;BME280;43510;51.920;4.492;2022-11-13T06:16:32;67013.75;;;10.39;97.83
44144;BME280;43510;51.920;4.492;2022-11-13T06:18:59;67007.06;;;10.33;97.43
44144;BME280;43510;51.920;4.492;2022-11-13T06:21:27;67007.41;;;10.38;96.95
44144;BME280;43510;51.920;4.492;2022-11-13T06:23:53;67013.94;;;10.41;96.23
44144;BME280;43510;51.920;4.492;2022-11-13T06:26:23;67008.53;;;10.39;96.40
44144;BME280;43510;51.920;4.492;2022-11-13T06:28:49;67009.47;;;10.37;96.12
44144;BME280;43510;51.920;4.492;2022-11-13T06:31:17;67013.53;;;10.43;95.52
44144;BME280;43510;51.920;4.492;2022-11-13T06:33:43;67016.16;;;10.43;95.54
44144;BME280;43510;51.920;4.492;2022-11-13T06:36:17;67024.53;;;10.51;95.46
44144;BME280;43510;51.920;4.492;2022-11-13T06:38:43;67028.03;;;10.56;95.36
44144;BME280;43510;51.920;4.492;2022-11-13T06:41:11;67028.59;;;10.57;95.13
44144;BME280;43510;51.920;4.492;2022-11-13T06:43:37;67026.94;;;10.55;94.65
44144;BME280;43510;51.920;4.492;2022-11-13T06:46:05;67034.97;;;10.58;94.09
44144;BME280;43510;51.920;4.492;2022-11-13T06:48:31;67028.28;;;10.52;94.03
44144;BME280;43510;51.920;4.492;2022-11-13T06:51:01;67023.59;;;10.52;94.14
44144;BME280;43510;51.920;4.492;2022-11-13T06:53:27;67028.03;;;10.56;93.51
44144;BME280;43510;51.920;4.492;2022-11-13T06:55:54;67020.97;;;10.52;93.72
44144;BME280;43510;51.920;4.492;2022-11-13T06:58:20;67031.97;;;10.60;93.15
44144;BME280;43510;51.920;4.492;2022-11-13T07:00:45;67035.53;;;10.58;93.32
44144;BME280;43510;51.920;4.492;2022-11-13T07:03:16;67027.88;;;10.54;93.19
44144;BME280;43510;51.920;4.492;2022-11-13T07:05:42;67028.81;;;10.52;92.75
44144;BME280;43510;51.920;4.492;2022-11-13T07:08:08;67025.09;;;10.51;92.69
44144;BME280;43510;51.920;4.492;2022-11-13T07:10:33;67024.31;;;10.55;92.82
44144;BME280;43510;51.920;4.492;2022-11-13T07:13:01;67024.16;;;10.53;92.36
44144;BME280;43510;51.920;4.492;2022-11-13T07:15:27;67027.16;;;10.51;91.90
44144;BME280;43510;51.920;4.492;2022-11-13T07:17:52;67027.09;;;10.58;91.90
44144;BME280;43510;51.920;4.492;2022-11-13T07:20:18;67031.22;;;10.57;91.65
44144;BME280;43510;51.920;4.492;2022-11-13T07:22:44;67045.00;;;10.67;91.49
44144;BME280;43510;51.920;4.492;2022-11-13T07:25:10;67048.69;;;10.75;90.70
44144;BME280;43510;51.920;4.492;2022-11-13T07:27:36;67049.41;;;10.78;90.54
44144;BME280;43510;51.920;4.492;2022-11-13T07:30:02;67055.94;;;10.82;90.25
44144;BME280;43510;51.920;4.492;2022-11-13T07:32:28;67053.13;;;10.79;90.33
44144;BME280;43510;51.920;4.492;2022-11-13T07:34:53;67059.84;;;10.85;90.08
44144;BME280;43510;51.920;4.492;2022-11-13T07:37:23;67073.78;;;10.98;90.01
44144;BME280;43510;51.920;4.492;2022-11-13T07:39:48;67096.13;;;11.18;89.23
44144;BME280;43510;51.920;4.492;2022-11-13T07:42:14;67123.84;;;11.41;88.25
44144;BME280;43510;51.920;4.492;2022-11-13T07:44:40;67127.19;;;11.44;86.94
44144;BME280;43510;51.920;4.492;2022-11-13T07:47:05;67135.75;;;11.54;86.58
44144;BME280;43510;51.920;4.492;2022-11-13T07:49:31;67144.28;;;11.64;86.33
44144;BME280;43510;51.920;4.492;2022-11-13T07:51:56;67160.31;;;11.76;85.54
44144;BME280;43510;51.920;4.492;2022-11-13T07:54:22;67160.88;;;11.77;85.19
44144;BME280;43510;51.920;4.492;2022-11-13T07:56:47;67156.41;;;11.73;84.74
44144;BME280;43510;51.920;4.492;2022-11-13T07:59:12;67166.47;;;11.82;84.85
44144;BME280;43510;51.920;4.492;2022-11-13T08:01:38;67174.13;;;11.86;84.74
44144;BME280;43510;51.920;4.492;2022-11-13T08:04:03;67204.84;;;12.14;84.06
44144;BME280;43510;51.920;4.492;2022-11-13T08:06:29;67221.22;;;12.32;83.18
44144;BME280;43510;51.920;4.492;2022-11-13T08:08:55;67232.22;;;12.39;82.70
44144;BME280;43510;51.920;4.492;2022-11-13T08:11:21;67226.63;;;12.34;82.64
44144;BME280;43510;51.920;4.492;2022-11-13T08:13:47;67240.75;;;12.49;82.53
44144;BME280;43510;51.920;4.492;2022-11-13T08:16:12;67251.78;;;12.57;81.93
44144;BME280;43510;51.920;4.492;2022-11-13T08:18:38;67254.16;;;12.61;81.93
44144;BME280;43510;51.920;4.492;2022-11-13T08:21:08;67259.19;;;12.66;81.72
44144;BME280;43510;51.920;4.492;2022-11-13T08:23:34;67275.41;;;12.81;80.92
44144;BME280;43510;51.920;4.492;2022-11-13T08:26:03;67281.56;;;12.86;80.67
44144;BME280;43510;51.920;4.492;2022-11-13T08:28:29;67292.00;;;12.93;80.46
44144;BME280;43510;51.920;4.492;2022-11-13T08:30:54;67316.06;;;13.15;79.98
44144;BME280;43510;51.920;4.492;2022-11-13T08:33:19;67334.50;;;13.32;78.42
44144;BME280;43510;51.920;4.492;2022-11-13T08:35:54;67357.81;;;13.51;77.93
44144;BME280;43510;51.920;4.492;2022-11-13T08:38:20;67380.19;;;13.71;76.90
44144;BME280;43510;51.920;4.492;2022-11-13T08:40:45;67386.69;;;13.81;76.58
44144;BME280;43510;51.920;4.492;2022-11-13T08:43:11;67402.56;;;13.91;76.10
44144;BME280;43510;51.920;4.492;2022-11-13T08:45:36;67402.88;;;13.96;76.02
44144;BME280;43510;51.920;4.492;2022-11-13T08:48:03;67400.09;;;13.94;76.11
44144;BME280;43510;51.920;4.492;2022-11-13T08:50:31;67403.44;;;13.97;75.99
44144;BME280;43510;51.920;4.492;2022-11-13T08:52:57;67386.13;;;13.81;76.10
44144;BME280;43510;51.920;4.492;2022-11-13T08:55:24;67369.19;;;13.63;76.55
44144;BME280;43510;51.920;4.492;2022-11-13T08:57:50;67349.19;;;13.47;77.23
44144;BME280;43510;51.920;4.492;2022-11-13T09:00:16;67340.25;;;13.39;77.78
44144;BME280;43510;51.920;4.492;2022-11-13T09:02:42;67340.81;;;13.40;78.17
44144;BME280;43510;51.920;4.492;2022-11-13T09:05:08;67343.59;;;13.42;78.32
44144;BME280;43510;51.920;4.492;2022-11-13T09:07:35;67339.53;;;13.36;78.85
44144;BME280;43510;51.920;4.492;2022-11-13T09:10:01;67336.56;;;13.31;78.72
44144;BME280;43510;51.920;4.492;2022-11-13T09:12:26;67330.19;;;13.30;78.81
44144;BME280;43510;51.920;4.492;2022-11-13T09:14:52;67346.25;;;13.42;79.03
44144;BME280;43510;51.920;4.492;2022-11-13T09:17:17;67352.56;;;13.51;79.10
44144;BME280;43510;51.920;4.492;2022-11-13T09:19:42;67347.53;;;13.46;79.25
44144;BME280;43510;51.920;4.492;2022-11-13T09:22:09;67341.72;;;13.45;79.56
44144;BME280;43510;51.920;4.492;2022-11-13T09:24:35;67348.63;;;13.47;79.38
44144;BME280;43510;51.920;4.492;2022-11-13T09:27:01;67353.69;;;13.52;79.00
44144;BME280;43510;51.920;4.492;2022-11-13T09:29:26;67369.56;;;13.61;79.17
44144;BME280;43510;51.920;4.492;2022-11-13T09:31:53;67375.47;;;13.71;79.06
44144;BME280;43510;51.920;4.492;2022-11-13T09:34:19;67377.16;;;13.73;78.98
44144;BME280;43510;51.920;4.492;2022-11-13T09:36:45;67381.47;;;13.74;78.60
44144;BME280;43510;51.920;4.492;2022-11-13T09:39:10;67391.38;;;13.81;78.94
44144;BME280;43510;51.920;4.492;2022-11-13T09:41:39;67386.50;;;13.79;78.84
44144;BME280;43510;51.920;4.492;2022-11-13T09:44:17;67396.19;;;13.90;78.77
44144;BME280;43510;51.920;4.492;2022-11-13T09:46:52;67401.44;;;13.90;78.49
44144;BME280;43510;51.920;4.492;2022-11-13T09:49:26;67403.31;;;13.94;78.83
44144;BME280;43510;51.920;4.492;2022-11-13T09:51:55;67410.56;;;14.01;78.56
44144;BME280;43510;51.920;4.492;2022-11-13T09:54:22;67420.78;;;14.12;77.89
44144;BME280;43510;51.920;4.492;2022-11-13T10:07:38;67542.28;;;15.22;75.01
44144;BME280;43510;51.920;4.492;2022-11-13T10:13:10;67596.63;;;15.71;73.19
44144;BME280;43510;51.920;4.492;2022-11-13T10:15:42;67624.63;;;15.97;72.70
44144;BME280;43510;51.920;4.492;2022-11-13T10:18:16;67660.50;;;16.29;71.50
44144;BME280;43510;51.920;4.492;2022-11-13T10:20:59;67641.28;;;16.09;72.22
44144;BME280;43510;51.920;4.492;2022-11-13T10:23:31;67609.50;;;15.83;72.67
44144;BME280;43510;51.920;4.492;2022-11-13T10:26:12;67580.94;;;15.57;73.54
44144;BME280;43510;51.920;4.492;2022-11-13T10:28:39;67571.41;;;15.48;73.81
44144;BME280;43510;51.920;4.492;2022-11-13T10:31:09;67570.28;;;15.47;73.99
44144;BME280;43510;51.920;4.492;2022-11-13T10:33:34;67566.50;;;15.46;74.29
44144;BME280;43510;51.920;4.492;2022-11-13T10:38:51;67563.94;;;15.39;74.83
44144;BME280;43510;51.920;4.492;2022-11-13T10:41:20;67554.03;;;15.33;74.85
44144;BME280;43510;51.920;4.492;2022-11-13T10:44:20;67557.72;;;15.41;75.23
44144;BME280;43510;51.920;4.492;2022-11-13T10:46:47;67544.19;;;15.19;75.78
44144;BME280;43510;51.920;4.492;2022-11-13T10:49:21;67540.44;;;15.18;75.88
44144;BME280;43510;51.920;4.492;2022-11-13T10:51:54;67548.44;;;15.28;75.74
44144;BME280;43510;51.920;4.492;2022-11-13T10:54:29;67562.81;;;15.38;75.58
44144;BME280;43510;51.920;4.492;2022-11-13T10:57:03;67571.22;;;15.46;75.49
44144;BME280;43510;51.920;4.492;2022-11-13T10:59:40;67560.59;;;15.36;75.03
44144;BME280;43510;51.920;4.492;2022-11-13T11:02:22;67566.34;;;15.44;75.08
44144;BME280;43510;51.920;4.492;2022-11-13T11:05:00;67612.84;;;15.86;74.30
44144;BME280;43510;51.920;4.492;2022-11-13T11:07:26;67597.19;;;15.72;73.67
44144;BME280;43510;51.920;4.492;2022-11-13T11:09:51;67592.53;;;15.65;73.92
44144;BME280;43510;51.920;4.492;2022-11-13T11:12:22;67608.06;;;15.77;74.24
44144;BME280;43510;51.920;4.492;2022-11-13T11:15:08;67603.34;;;15.77;73.79
44144;BME280;43510;51.920;4.492;2022-11-13T11:17:47;67597.75;;;15.72;73.79
44144;BME280;43510;51.920;4.492;2022-11-13T11:23:36;67611.59;;;15.82;73.93
44144;BME280;43510;51.920;4.492;2022-11-13T11:26:28;67597.75;;;15.72;74.15
44144;BME280;43510;51.920;4.492;2022-11-13T11:29:58;67598.31;;;15.73;74.47
44144;BME280;43510;51.920;4.492;2022-11-13T11:32:25;67592.13;;;15.67;73.98
44144;BME280;43510;51.920;4.492;2022-11-13T11:37:37;67599.81;;;15.72;73.76
44144;BME280;43510;51.920;4.492;2022-11-13T11:40:17;67603.34;;;15.77;73.74
44144;BME280;43510;51.920;4.492;2022-11-13T11:42:54;67611.41;;;15.80;73.54
44144;BME280;43510;51.920;4.492;2022-11-13T11:45:41;67617.19;;;15.87;73.76
44144;BME280;43510;51.920;4.492;2022-11-13T11:48:26;67622.97;;;15.95;73.82
44144;BME280;43510;51.920;4.492;2022-11-13T11:51:05;67626.88;;;15.99;73.74
44144;BME280;43510;51.920;4.492;2022-11-13T12:07:46;67597.34;;;15.74;75.19
44144;BME280;43510;51.920;4.492;2022-11-13T12:18:30;67603.75;;;15.75;75.29
44144;BME280;43510;51.920;4.492;2022-11-13T12:26:34;67598.53;;;15.68;74.88
44144;BME280;43510;51.920;4.492;2022-11-13T12:32:23;67584.00;;;15.55;75.55
44144;BME280;43510;51.920;4.492;2022-11-13T12:35:06;67582.63;;;15.59;76.06
44144;BME280;43510;51.920;4.492;2022-11-13T12:37:36;67585.56;;;15.64;75.65
44144;BME280;43510;51.920;4.492;2022-11-13T12:40:14;67597.34;;;15.74;75.63
44144;BME280;43510;51.920;4.492;2022-11-13T12:45:34;67609.50;;;15.83;74.74
44144;BME280;43510;51.920;4.492;2022-11-13T12:48:19;67596.63;;;15.71;75.01
44144;BME280;43510;51.920;4.492;2022-11-13T12:50:59;67607.25;;;15.81;75.86
44144;BME280;43510;51.920;4.492;2022-11-13T12:53:30;67589.16;;;15.62;75.57
44144;BME280;43510;51.920;4.492;2022-11-13T12:56:01;67586.13;;;15.64;75.98
44144;BME280;43510;51.920;4.492;2022-11-13T12:58:30;67584.31;;;15.60;75.24
44144;BME280;43510;51.920;4.492;2022-11-13T13:15:36;67613.41;;;15.86;75.09
44144;BME280;43510;51.920;4.492;2022-11-13T13:18:22;67613.97;;;15.87;75.11
44144;BME280;43510;51.920;4.492;2022-11-13T13:21:11;67620.16;;;15.92;75.35
44144;BME280;43510;51.920;4.492;2022-11-13T13:23:48;67618.16;;;15.86;75.99
44144;BME280;43510;51.920;4.492;2022-11-13T13:26:20;67607.25;;;15.81;75.88
44144;BME280;43510;51.920;4.492;2022-11-13T13:29:04;67618.72;;;15.86;75.66
44144;BME280;43510;51.920;4.492;2022-11-13T13:45:53;67638.63;;;16.09;75.18
44144;BME280;43510;51.920;4.492;2022-11-13T13:48:25;67641.44;;;16.12;75.34
44144;BME280;43510;51.920;4.492;2022-11-13T13:50:53;67638.63;;;16.09;74.45
44144;BME280;43510;51.920;4.492;2022-11-13T13:53:32;67644.41;;;16.17;74.17
44144;BME280;43510;51.920;4.492;2022-11-13T13:56:01;67672.81;;;16.40;72.79
44144;BME280;43510;51.920;4.492;2022-11-13T13:58:35;67647.59;;;16.17;73.31
44144;BME280;43510;51.920;4.492;2022-11-13T14:01:05;67639.19;;;16.10;73.15
44144;BME280;43510;51.920;4.492;2022-11-13T14:03:31;67641.28;;;16.09;72.68
44144;BME280;43510;51.920;4.492;2022-11-13T14:06:26;67651.38;;;16.18;72.12
44144;BME280;43510;51.920;4.492;2022-11-13T14:08:52;67640.00;;;16.06;72.06
44144;BME280;43510;51.920;4.492;2022-11-13T14:11:25;67648.97;;;16.14;72.36
44144;BME280;43510;51.920;4.492;2022-11-13T14:13:53;67635.28;;;16.06;71.91
44144;BME280;43510;51.920;4.492;2022-11-13T14:16:19;67640.72;;;16.09;71.64
44144;BME280;43510;51.920;4.492;2022-11-13T14:18:46;67634.72;;;16.06;71.79
44144;BME280;43510;51.920;4.492;2022-11-13T14:21:20;67640.72;;;16.09;71.52
44144;BME280;43510;51.920;4.492;2022-11-13T14:23:50;67636.97;;;16.08;71.50
44144;BME280;43510;51.920;4.492;2022-11-13T14:26:18;67630.63;;;16.00;70.96
44144;BME280;43510;51.920;4.492;2022-11-13T14:31:14;67628.00;;;16.00;70.60
44144;BME280;43510;51.920;4.492;2022-11-13T14:33:43;67626.31;;;15.98;70.57
44144;BME280;43510;51.920;4.492;2022-11-13T14:36:10;67620.72;;;15.93;70.09
44144;BME280;43510;51.920;4.492;2022-11-13T14:38:40;67624.63;;;15.97;69.55
44144;BME280;43510;51.920;4.492;2022-11-13T14:41:20;67625.59;;;15.95;70.09
44144;BME280;43510;51.920;4.492;2022-11-13T14:43:50;67611.59;;;15.82;70.12